createdAt,value
2023-01-17T00:00:13.602Z,2.62
2023-01-17T00:05:13.605Z,2.62
2023-01-17T00:10:13.580Z,2.56
2023-01-17T00:15:13.572Z,2.56
2023-01-17T00:20:13.580Z,2.43
2023-01-17T00:25:13.551Z,2.25
2023-01-17T00:30:13.576Z,2.12
2023-01-17T00:35:13.771Z,2.18
2023-01-17T00:40:13.550Z,2.31
2023-01-17T00:45:13.548Z,2.37
2023-01-17T00:50:13.547Z,2.31
2023-01-17T00:55:13.583Z,2.12
2023-01-17T01:00:13.533Z,2.06
2023-01-17T01:05:13.549Z,1.75
2023-01-17T01:10:13.550Z,1.62
2023-01-17T01:15:13.536Z,1.62
2023-01-17T01:20:13.527Z,1.68
2023-01-17T01:25:13.523Z,1.5
2023-01-17T01:30:13.543Z,1.31
2023-01-17T01:35:13.563Z,1.37
2023-01-17T01:40:13.515Z,1.37
2023-01-17T01:45:13.515Z,1.31
2023-01-17T01:50:13.531Z,1.37
2023-01-17T01:55:13.506Z,1.25
2023-01-17T02:00:13.559Z,1.43
2023-01-17T02:05:13.518Z,1.43
2023-01-17T02:10:13.530Z,1.43
2023-01-17T02:15:13.515Z,1.37
2023-01-17T02:20:13.495Z,1.31
2023-01-17T02:25:13.499Z,1.12
2023-01-17T02:30:13.524Z,1.06
2023-01-17T02:35:13.506Z,1.12
2023-01-17T02:40:13.506Z,0.93
2023-01-17T02:45:13.487Z,1.06
2023-01-17T02:50:13.491Z,0.93
2023-01-17T02:55:13.479Z,0.75
2023-01-17T03:00:13.522Z,1
2023-01-17T03:05:13.488Z,0.62
2023-01-17T03:10:13.495Z,0.62
2023-01-17T03:15:13.469Z,0.31
2023-01-17T03:20:13.484Z,0.06
2023-01-17T03:25:13.470Z,0
2023-01-17T03:30:13.504Z,0.18
2023-01-17T03:35:13.505Z,0.18
2023-01-17T03:40:13.493Z,-0.12
2023-01-17T03:45:13.489Z,-0.18
2023-01-17T03:50:13.484Z,-0.37
2023-01-17T03:55:13.489Z,-0.56
2023-01-17T04:00:13.479Z,-0.87
2023-01-17T04:05:13.476Z,-1.12
2023-01-17T04:10:13.501Z,-1.18
2023-01-17T04:15:13.465Z,-1.62
2023-01-17T04:20:13.467Z,-1.18
2023-01-17T04:25:13.462Z,-1.43
2023-01-17T04:30:13.483Z,-1.75
2023-01-17T04:35:13.460Z,-1.62
2023-01-17T04:40:13.454Z,-1.68
2023-01-17T04:45:13.459Z,-1.87
2023-01-17T04:50:13.459Z,-1.93
2023-01-17T05:00:13.454Z,-2
2023-01-17T05:05:13.474Z,-2.06
2023-01-17T05:10:13.459Z,-1.93
2023-01-17T05:15:13.464Z,-2.12
2023-01-17T05:20:13.464Z,-1.81
2023-01-17T05:25:13.445Z,-2.12
2023-01-17T05:30:13.494Z,-2.37
2023-01-17T05:35:13.464Z,-2.56
2023-01-17T05:40:13.470Z,-2.43
2023-01-17T05:45:13.471Z,-2.37
2023-01-17T05:50:13.454Z,-2.5
2023-01-17T05:55:13.465Z,-2.5
2023-01-17T06:00:13.456Z,-2.56
2023-01-17T06:05:13.458Z,-2.43
2023-01-17T06:10:13.439Z,-2.68
2023-01-17T06:15:13.455Z,-2.75
2023-01-17T06:20:13.452Z,-2.68
2023-01-17T06:25:13.454Z,-2.5
2023-01-17T06:30:13.451Z,-2.62
2023-01-17T06:35:13.456Z,-2.68
2023-01-17T06:40:13.472Z,-2.75
2023-01-17T06:45:13.459Z,-2.62
2023-01-17T06:50:13.460Z,-2.68
2023-01-17T06:55:13.446Z,-2.37
2023-01-17T07:00:13.469Z,-2.37
2023-01-17T07:05:13.635Z,-2.62
2023-01-17T07:10:13.470Z,-2.81
2023-01-17T07:15:13.460Z,-2.81
2023-01-17T07:20:13.446Z,-2.5
2023-01-17T07:25:13.470Z,-2.56
2023-01-17T07:30:13.484Z,-2.62
2023-01-17T07:35:13.451Z,-2.56
2023-01-17T07:40:13.470Z,-2.37
2023-01-17T07:45:13.442Z,-2
2023-01-17T07:50:13.441Z,-1.81
2023-01-17T07:55:13.441Z,-1.56
2023-01-17T08:00:13.459Z,-0.75
2023-01-17T08:05:13.437Z,-0.62
2023-01-17T08:10:13.478Z,-0.87
2023-01-17T08:15:13.453Z,0.5
2023-01-17T08:20:13.552Z,-0.25
2023-01-17T08:25:13.423Z,-0.37
2023-01-17T08:30:13.421Z,-0.12
2023-01-17T08:35:13.434Z,-0.18
2023-01-17T08:40:13.444Z,-0.18
2023-01-17T08:45:13.447Z,0.12
2023-01-17T08:50:13.434Z,0.43
2023-01-17T08:55:13.467Z,0.68
2023-01-17T09:00:13.416Z,0.87
2023-01-17T09:05:13.419Z,1.18
2023-01-17T09:10:13.435Z,1.37
2023-01-17T09:15:13.425Z,1.31
2023-01-17T09:20:13.420Z,1.5
2023-01-17T09:25:13.424Z,1.68
2023-01-17T09:30:13.423Z,1.81
2023-01-17T09:35:13.428Z,1.81
2023-01-17T09:40:13.408Z,1.87
2023-01-17T09:45:13.396Z,2.18
2023-01-17T09:50:13.431Z,2.43
2023-01-17T09:55:13.397Z,2.81
2023-01-17T10:00:13.424Z,2.68
2023-01-17T10:05:13.458Z,3.18
2023-01-17T10:10:13.391Z,2.93
2023-01-17T10:25:13.392Z,2.75
2023-01-17T10:35:14.841Z,3.25
2023-01-17T10:45:13.363Z,3.31
2023-01-17T10:50:13.458Z,3.25
2023-01-17T11:00:13.382Z,3.62
2023-01-17T11:05:13.343Z,3.12
2023-01-17T11:10:13.361Z,3.06
2023-01-17T11:15:13.352Z,3.31
2023-01-17T11:20:13.355Z,3.31
2023-01-17T11:25:13.345Z,3.5
2023-01-17T11:30:13.359Z,3.5
2023-01-17T11:35:13.347Z,3.5
2023-01-17T11:40:13.351Z,3.62
2023-01-17T11:45:13.354Z,3.68
2023-01-17T11:50:13.362Z,3.56
2023-01-17T11:55:13.345Z,3.81
2023-01-17T12:00:13.318Z,3.87
2023-01-17T12:05:13.439Z,4.18
2023-01-17T12:10:13.313Z,4.06
2023-01-17T12:15:13.326Z,3.93
2023-01-17T12:20:13.332Z,3.93
2023-01-17T12:25:13.343Z,3.81
2023-01-17T12:30:13.335Z,3.68
2023-01-17T12:35:13.291Z,3.68
2023-01-17T12:40:13.413Z,3.87
2023-01-17T12:45:13.355Z,3.75
2023-01-17T12:50:13.374Z,3.68
2023-01-17T12:55:13.298Z,3.5
2023-01-17T13:00:13.359Z,3.37
2023-01-17T13:05:13.299Z,3.31
2023-01-17T13:10:13.285Z,3.25
2023-01-17T13:15:13.328Z,3.31
2023-01-17T13:20:13.290Z,3.43
2023-01-17T13:25:13.263Z,3.31
2023-01-17T13:30:13.272Z,3.25
2023-01-17T13:35:13.267Z,3.25
2023-01-17T13:40:13.295Z,3.18
2023-01-17T13:45:13.260Z,3.25
2023-01-17T13:50:13.283Z,3.18
2023-01-17T13:55:13.265Z,3.06
2023-01-17T14:00:13.280Z,3.12
2023-01-17T14:05:13.246Z,3.12
2023-01-17T14:10:13.248Z,3.12
2023-01-17T14:15:13.340Z,3
2023-01-17T14:20:13.249Z,3
2023-01-17T14:25:13.242Z,3.18
2023-01-17T14:30:13.229Z,3.25
2023-01-17T14:35:13.237Z,3.06
2023-01-17T14:40:13.288Z,2.87
2023-01-17T14:45:13.244Z,2.68
2023-01-17T14:50:13.218Z,2.43
2023-01-17T14:55:13.218Z,2.43
2023-01-17T15:00:13.218Z,2.18
2023-01-17T15:05:13.213Z,2.18
2023-01-17T15:10:13.243Z,2.06
2023-01-17T15:15:13.207Z,1.93
2023-01-17T15:20:13.225Z,1.87
2023-01-17T15:25:15.385Z,1.75
2023-01-17T15:30:13.187Z,1.68
2023-01-17T15:35:13.222Z,1.62
2023-01-17T15:40:13.184Z,1.56
2023-01-17T15:45:13.179Z,1.43
2023-01-17T15:50:13.211Z,1.37
2023-01-17T15:55:13.214Z,1.25
2023-01-17T16:00:13.180Z,1.31
2023-01-17T16:05:13.170Z,1.18
2023-01-17T16:10:13.193Z,1.12
2023-01-17T16:15:13.666Z,1.12
2023-01-17T16:20:13.200Z,1.06
2023-01-17T16:25:13.187Z,1.12
2023-01-17T16:30:13.176Z,1.12
2023-01-17T16:35:13.273Z,1.12
2023-01-17T16:40:13.198Z,1.06
2023-01-17T16:45:13.176Z,1.12
2023-01-17T16:50:13.167Z,1.12
2023-01-17T16:55:13.173Z,1.06
2023-01-17T17:00:13.162Z,1.06
2023-01-17T17:05:13.267Z,1.06
2023-01-17T17:10:13.172Z,1.06
2023-01-17T17:15:13.261Z,1.12
2023-01-17T17:20:13.162Z,1.12
2023-01-17T17:25:13.166Z,1.12
2023-01-17T17:30:13.180Z,1.12
2023-01-17T17:35:13.171Z,1.18
2023-01-17T17:40:13.154Z,1.18
2023-01-17T17:45:13.166Z,1.31
2023-01-17T17:50:13.153Z,1.18
2023-01-17T17:55:13.165Z,1.18
2023-01-17T18:00:13.151Z,1.18
2023-01-17T18:05:13.143Z,1.25
2023-01-17T18:10:13.167Z,1.37
2023-01-17T18:15:13.143Z,1.31
2023-01-17T18:20:13.116Z,1.31
2023-01-17T18:25:13.127Z,1.31
2023-01-17T18:30:13.114Z,1.25
2023-01-17T18:35:13.184Z,1.37
2023-01-17T18:40:13.123Z,1.18
2023-01-17T18:45:13.166Z,1.31
2023-01-17T18:50:13.148Z,1.37
2023-01-17T18:55:13.144Z,1.12
2023-01-17T19:00:13.137Z,1.18
2023-01-17T19:05:13.133Z,1.25
2023-01-17T19:10:13.140Z,1.25
2023-01-17T19:15:13.134Z,1.25
2023-01-17T19:20:13.118Z,1.06
2023-01-17T19:25:13.120Z,1.12
2023-01-17T19:30:13.115Z,0.93
2023-01-17T19:35:13.088Z,0.93
2023-01-17T19:40:13.089Z,1.31
2023-01-17T19:45:13.098Z,1.06
2023-01-17T19:50:13.106Z,0.87
2023-01-17T19:55:13.085Z,1
2023-01-17T20:00:13.149Z,1
2023-01-17T20:05:13.100Z,1.06
2023-01-17T20:10:13.092Z,1.06
2023-01-17T20:15:13.067Z,1.06
2023-01-17T20:20:13.071Z,1.06
2023-01-17T20:25:13.075Z,1.06
2023-01-17T20:30:19.977Z,0.43
2023-01-17T20:35:13.116Z,0.62
2023-01-17T20:40:13.091Z,0.37
2023-01-17T20:45:13.057Z,0.56
2023-01-17T20:50:13.080Z,0.06
2023-01-17T20:55:13.056Z,-0.12
2023-01-17T21:00:13.059Z,-0.18
2023-01-17T21:05:13.046Z,-0.31
2023-01-17T21:10:13.058Z,-0.5
2023-01-17T21:15:13.055Z,-0.5
2023-01-17T21:20:13.064Z,-0.43
2023-01-17T21:25:13.042Z,-0.43
2023-01-17T21:30:13.203Z,-0.5
2023-01-17T21:35:13.057Z,-0.37
2023-01-17T21:40:13.048Z,-0.31
2023-01-17T21:45:13.037Z,-0.12
2023-01-17T21:50:22.244Z,-0.18
2023-01-17T21:55:13.024Z,-0.25
2023-01-17T22:00:13.041Z,-0.18
2023-01-17T22:05:13.040Z,-0.12
2023-01-17T22:10:13.039Z,-0.12
2023-01-17T22:15:13.073Z,-0.06
2023-01-17T22:20:13.044Z,-0.12
2023-01-17T22:25:13.043Z,-0.06
2023-01-17T22:30:13.111Z,-0.18
2023-01-17T22:35:13.016Z,-0.25
2023-01-17T22:40:13.009Z,-0.25
2023-01-17T22:45:13.042Z,-0.25
2023-01-17T22:50:13.037Z,-0.31
2023-01-17T22:55:13.009Z,-0.31
2023-01-17T23:00:13.037Z,-0.18
2023-01-17T23:05:13.001Z,-0.43
2023-01-17T23:10:13.036Z,-0.37
2023-01-17T23:15:13.007Z,-0.5
2023-01-17T23:20:13.038Z,-0.43
2023-01-17T23:25:13.037Z,-0.5
2023-01-17T23:30:13.023Z,-0.5
2023-01-17T23:35:12.996Z,-0.56
2023-01-17T23:40:13.015Z,-0.62
2023-01-17T23:45:13.001Z,-0.56
2023-01-17T23:50:13.023Z,-0.56
2023-01-17T23:55:13.049Z,-0.68
